Wartburg, Illinois
Current Conditions -  °F | °C
As of 3:18 PM on Saturday 27 Dec 2014 (Local Time) from KCPS Reporting Station
Light Rain Light Rain  
Wind Chill: 35°   Ceiling: 1800
Heat Index: 41°   Visibility: 10mi
Dew Point: 37°   Wind: 9mph
Humidity: 86%   Direction: 330°NNW
Pressure: 30.14"   Gusts: NA
Location:  38.3034°N, 90.1358°W
Report Text: KCPS 272118Z 33008KT 10SM -RA SCT013 BKN018 OVC070 05/03 A3014 RMK AO2 P0000 T00500028
Loading
Personal Weather Stations






























Interactive Weather Map New forecast layout! Learn more

10-Day Weather Forecast

Advertisements
Track Severe Weather on mobile